sensor_id;sensor_type;location;lat;lon;timestamp;P1;durP1;ratioP1;P2;durP2;ratioP2
18280;SDS011;9266;51.132;17.062;2023-03-01T00:01:27;77.30;;;41.73;;
18280;SDS011;9266;51.132;17.062;2023-03-01T00:03:56;69.40;;;41.73;;
18280;SDS011;9266;51.132;17.062;2023-03-01T00:06:23;69.63;;;41.63;;
18280;SDS011;9266;51.132;17.062;2023-03-01T00:08:53;65.93;;;39.93;;
18280;SDS011;9266;51.132;17.062;2023-03-01T00:11:21;72.47;;;41.07;;
18280;SDS011;9266;51.132;17.062;2023-03-01T00:13:50;74.70;;;42.50;;
18280;SDS011;9266;51.132;17.062;2023-03-01T00:16:19;67.70;;;38.77;;
18280;SDS011;9266;51.132;17.062;2023-03-01T00:18:48;79.87;;;46.23;;
18280;SDS011;9266;51.132;17.062;2023-03-01T00:21:15;76.70;;;44.53;;
18280;SDS011;9266;51.132;17.062;2023-03-01T00:23:43;78.73;;;44.67;;
18280;SDS011;9266;51.132;17.062;2023-03-01T00:26:12;88.23;;;49.33;;
18280;SDS011;9266;51.132;17.062;2023-03-01T00:28:41;86.10;;;45.93;;
18280;SDS011;9266;51.132;17.062;2023-03-01T00:31:08;108.83;;;55.03;;
18280;SDS011;9266;51.132;17.062;2023-03-01T00:33:36;100.03;;;56.53;;
18280;SDS011;9266;51.132;17.062;2023-03-01T00:36:04;108.43;;;56.70;;
18280;SDS011;9266;51.132;17.062;2023-03-01T00:38:34;103.10;;;54.03;;
18280;SDS011;9266;51.132;17.062;2023-03-01T00:41:05;97.40;;;54.17;;
18280;SDS011;9266;51.132;17.062;2023-03-01T00:43:34;93.63;;;51.60;;
18280;SDS011;9266;51.132;17.062;2023-03-01T00:46:02;91.07;;;50.33;;
18280;SDS011;9266;51.132;17.062;2023-03-01T00:48:31;86.47;;;45.07;;
18280;SDS011;9266;51.132;17.062;2023-03-01T00:51:03;79.07;;;44.77;;
18280;SDS011;9266;51.132;17.062;2023-03-01T00:53:32;77.93;;;43.53;;
18280;SDS011;9266;51.132;17.062;2023-03-01T00:55:59;75.73;;;43.63;;
18280;SDS011;9266;51.132;17.062;2023-03-01T00:58:26;81.07;;;45.53;;
18280;SDS011;9266;51.132;17.062;2023-03-01T01:00:54;88.50;;;48.37;;
18280;SDS011;9266;51.132;17.062;2023-03-01T01:03:22;84.03;;;46.43;;
18280;SDS011;9266;51.132;17.062;2023-03-01T01:05:49;83.43;;;46.67;;
18280;SDS011;9266;51.132;17.062;2023-03-01T01:08:17;84.70;;;48.07;;
18280;SDS011;9266;51.132;17.062;2023-03-01T01:10:44;85.53;;;46.30;;
18280;SDS011;9266;51.132;17.062;2023-03-01T01:13:11;89.23;;;49.27;;
18280;SDS011;9266;51.132;17.062;2023-03-01T01:15:39;88.93;;;50.40;;
18280;SDS011;9266;51.132;17.062;2023-03-01T01:18:08;89.33;;;47.63;;
18280;SDS011;9266;51.132;17.062;2023-03-01T01:20:35;107.70;;;55.17;;
18280;SDS011;9266;51.132;17.062;2023-03-01T01:23:04;104.10;;;53.53;;
18280;SDS011;9266;51.132;17.062;2023-03-01T01:25:34;117.80;;;63.10;;
18280;SDS011;9266;51.132;17.062;2023-03-01T01:28:02;110.50;;;55.23;;
18280;SDS011;9266;51.132;17.062;2023-03-01T01:30:29;99.27;;;50.80;;
18280;SDS011;9266;51.132;17.062;2023-03-01T01:32:56;96.30;;;51.10;;
18280;SDS011;9266;51.132;17.062;2023-03-01T01:35:25;98.50;;;54.07;;
18280;SDS011;9266;51.132;17.062;2023-03-01T01:37:52;103.37;;;54.50;;
18280;SDS011;9266;51.132;17.062;2023-03-01T01:40:19;109.57;;;54.87;;
18280;SDS011;9266;51.132;17.062;2023-03-01T01:42:46;105.83;;;54.10;;
18280;SDS011;9266;51.132;17.062;2023-03-01T01:45:27;91.80;;;51.07;;
18280;SDS011;9266;51.132;17.062;2023-03-01T01:47:57;98.40;;;50.73;;
18280;SDS011;9266;51.132;17.062;2023-03-01T01:50:29;95.27;;;52.37;;
18280;SDS011;9266;51.132;17.062;2023-03-01T01:53:03;113.90;;;58.30;;
18280;SDS011;9266;51.132;17.062;2023-03-01T01:55:34;130.50;;;69.27;;
18280;SDS011;9266;51.132;17.062;2023-03-01T01:58:04;121.47;;;65.17;;
18280;SDS011;9266;51.132;17.062;2023-03-01T02:00:34;117.83;;;59.67;;
18280;SDS011;9266;51.132;17.062;2023-03-01T02:03:05;115.57;;;56.70;;
18280;SDS011;9266;51.132;17.062;2023-03-01T02:05:37;107.90;;;54.83;;
18280;SDS011;9266;51.132;17.062;2023-03-01T02:08:10;136.10;;;69.00;;
18280;SDS011;9266;51.132;17.062;2023-03-01T02:10:39;129.47;;;67.63;;
18280;SDS011;9266;51.132;17.062;2023-03-01T02:13:07;132.47;;;69.17;;
18280;SDS011;9266;51.132;17.062;2023-03-01T02:15:36;125.27;;;67.03;;
18280;SDS011;9266;51.132;17.062;2023-03-01T02:18:05;136.30;;;77.73;;
18280;SDS011;9266;51.132;17.062;2023-03-01T02:20:35;140.00;;;75.27;;
18280;SDS011;9266;51.132;17.062;2023-03-01T02:23:11;120.00;;;61.73;;
18280;SDS011;9266;51.132;17.062;2023-03-01T02:25:41;113.03;;;57.53;;
18280;SDS011;9266;51.132;17.062;2023-03-01T02:28:22;110.60;;;62.27;;
18280;SDS011;9266;51.132;17.062;2023-03-01T02:30:52;117.40;;;62.87;;
18280;SDS011;9266;51.132;17.062;2023-03-01T02:33:38;114.97;;;61.27;;
18280;SDS011;9266;51.132;17.062;2023-03-01T02:36:06;119.27;;;61.60;;
18280;SDS011;9266;51.132;17.062;2023-03-01T02:38:38;114.33;;;61.10;;
18280;SDS011;9266;51.132;17.062;2023-03-01T02:41:06;113.17;;;59.50;;
18280;SDS011;9266;51.132;17.062;2023-03-01T02:43:36;111.17;;;59.70;;
18280;SDS011;9266;51.132;17.062;2023-03-01T02:46:05;110.07;;;58.57;;
18280;SDS011;9266;51.132;17.062;2023-03-01T02:48:42;117.50;;;61.30;;
18280;SDS011;9266;51.132;17.062;2023-03-01T02:51:12;112.87;;;58.17;;
18280;SDS011;9266;51.132;17.062;2023-03-01T02:54:01;113.30;;;60.63;;
18280;SDS011;9266;51.132;17.062;2023-03-01T02:56:36;116.00;;;60.53;;
18280;SDS011;9266;51.132;17.062;2023-03-01T02:59:05;109.00;;;59.73;;
18280;SDS011;9266;51.132;17.062;2023-03-01T03:01:32;112.03;;;59.27;;
18280;SDS011;9266;51.132;17.062;2023-03-01T03:04:06;113.23;;;60.50;;
18280;SDS011;9266;51.132;17.062;2023-03-01T03:06:34;141.20;;;73.33;;
18280;SDS011;9266;51.132;17.062;2023-03-01T03:09:02;120.03;;;63.23;;
18280;SDS011;9266;51.132;17.062;2023-03-01T03:11:30;115.37;;;61.77;;
18280;SDS011;9266;51.132;17.062;2023-03-01T03:13:57;110.23;;;60.80;;
18280;SDS011;9266;51.132;17.062;2023-03-01T03:16:26;105.53;;;59.13;;
18280;SDS011;9266;51.132;17.062;2023-03-01T03:18:54;108.73;;;58.37;;
18280;SDS011;9266;51.132;17.062;2023-03-01T03:21:29;107.90;;;56.53;;
18280;SDS011;9266;51.132;17.062;2023-03-01T03:23:57;109.93;;;58.77;;
18280;SDS011;9266;51.132;17.062;2023-03-01T03:26:24;109.47;;;59.70;;
18280;SDS011;9266;51.132;17.062;2023-03-01T03:28:51;116.13;;;60.03;;
18280;SDS011;9266;51.132;17.062;2023-03-01T03:31:19;109.03;;;58.60;;
18280;SDS011;9266;51.132;17.062;2023-03-01T03:33:48;108.67;;;59.30;;
18280;SDS011;9266;51.132;17.062;2023-03-01T03:36:15;115.50;;;58.80;;
18280;SDS011;9266;51.132;17.062;2023-03-01T03:38:44;120.73;;;62.57;;
18280;SDS011;9266;51.132;17.062;2023-03-01T03:41:12;117.93;;;63.33;;
18280;SDS011;9266;51.132;17.062;2023-03-01T03:43:39;115.23;;;61.77;;
18280;SDS011;9266;51.132;17.062;2023-03-01T03:46:07;128.47;;;66.97;;
18280;SDS011;9266;51.132;17.062;2023-03-01T03:48:35;119.97;;;65.33;;
18280;SDS011;9266;51.132;17.062;2023-03-01T03:51:05;121.50;;;62.00;;
18280;SDS011;9266;51.132;17.062;2023-03-01T03:53:32;123.83;;;64.07;;
18280;SDS011;9266;51.132;17.062;2023-03-01T03:56:00;127.50;;;65.93;;
18280;SDS011;9266;51.132;17.062;2023-03-01T03:58:27;118.20;;;64.07;;
18280;SDS011;9266;51.132;17.062;2023-03-01T04:00:54;121.77;;;63.63;;
18280;SDS011;9266;51.132;17.062;2023-03-01T04:03:23;117.47;;;61.93;;
18280;SDS011;9266;51.132;17.062;2023-03-01T04:05:51;118.37;;;62.60;;
18280;SDS011;9266;51.132;17.062;2023-03-01T04:08:20;117.93;;;64.73;;
18280;SDS011;9266;51.132;17.062;2023-03-01T04:10:49;117.77;;;65.07;;
18280;SDS011;9266;51.132;17.062;2023-03-01T04:13:19;122.77;;;65.97;;
18280;SDS011;9266;51.132;17.062;2023-03-01T04:15:47;107.63;;;59.30;;
18280;SDS011;9266;51.132;17.062;2023-03-01T04:18:16;114.27;;;59.37;;
18280;SDS011;9266;51.132;17.062;2023-03-01T04:20:44;120.07;;;62.70;;
18280;SDS011;9266;51.132;17.062;2023-03-01T04:23:13;120.70;;;62.93;;
18280;SDS011;9266;51.132;17.062;2023-03-01T04:25:47;116.50;;;61.67;;
18280;SDS011;9266;51.132;17.062;2023-03-01T04:28:19;116.50;;;61.47;;
18280;SDS011;9266;51.132;17.062;2023-03-01T04:30:46;126.93;;;62.57;;
18280;SDS011;9266;51.132;17.062;2023-03-01T04:33:13;118.77;;;63.83;;
18280;SDS011;9266;51.132;17.062;2023-03-01T04:35:40;118.53;;;61.97;;
18280;SDS011;9266;51.132;17.062;2023-03-01T04:38:07;123.27;;;63.43;;
18280;SDS011;9266;51.132;17.062;2023-03-01T04:40:35;120.87;;;64.20;;
18280;SDS011;9266;51.132;17.062;2023-03-01T04:43:04;202.73;;;101.03;;
18280;SDS011;9266;51.132;17.062;2023-03-01T04:45:32;134.93;;;72.90;;
18280;SDS011;9266;51.132;17.062;2023-03-01T04:48:00;134.13;;;69.40;;
18280;SDS011;9266;51.132;17.062;2023-03-01T04:50:27;118.83;;;62.77;;
18280;SDS011;9266;51.132;17.062;2023-03-01T04:52:55;116.97;;;62.57;;
18280;SDS011;9266;51.132;17.062;2023-03-01T04:55:25;113.30;;;60.27;;
18280;SDS011;9266;51.132;17.062;2023-03-01T04:57:52;105.53;;;56.83;;
18280;SDS011;9266;51.132;17.062;2023-03-01T05:00:22;117.73;;;61.23;;
18280;SDS011;9266;51.132;17.062;2023-03-01T05:02:50;111.27;;;60.93;;
18280;SDS011;9266;51.132;17.062;2023-03-01T05:05:20;126.70;;;62.20;;
18280;SDS011;9266;51.132;17.062;2023-03-01T05:07:50;115.97;;;59.87;;
18280;SDS011;9266;51.132;17.062;2023-03-01T05:10:19;124.97;;;64.00;;
18280;SDS011;9266;51.132;17.062;2023-03-01T05:12:46;116.93;;;64.07;;
18280;SDS011;9266;51.132;17.062;2023-03-01T05:15:13;115.70;;;62.90;;
18280;SDS011;9266;51.132;17.062;2023-03-01T05:17:42;107.73;;;59.67;;
18280;SDS011;9266;51.132;17.062;2023-03-01T05:20:10;111.40;;;61.87;;
18280;SDS011;9266;51.132;17.062;2023-03-01T05:22:37;116.33;;;62.60;;
18280;SDS011;9266;51.132;17.062;2023-03-01T05:25:04;109.93;;;60.07;;
18280;SDS011;9266;51.132;17.062;2023-03-01T05:27:33;119.03;;;61.43;;
18280;SDS011;9266;51.132;17.062;2023-03-01T05:30:00;125.03;;;65.67;;
18280;SDS011;9266;51.132;17.062;2023-03-01T05:32:38;116.13;;;61.43;;
18280;SDS011;9266;51.132;17.062;2023-03-01T05:35:11;93.13;;;52.23;;
18280;SDS011;9266;51.132;17.062;2023-03-01T05:37:40;96.73;;;54.20;;
18280;SDS011;9266;51.132;17.062;2023-03-01T05:40:09;110.97;;;59.40;;
18280;SDS011;9266;51.132;17.062;2023-03-01T05:42:41;109.00;;;57.83;;
18280;SDS011;9266;51.132;17.062;2023-03-01T05:45:11;102.50;;;56.63;;
18280;SDS011;9266;51.132;17.062;2023-03-01T05:47:39;113.17;;;59.17;;
18280;SDS011;9266;51.132;17.062;2023-03-01T05:50:11;116.03;;;63.10;;
18280;SDS011;9266;51.132;17.062;2023-03-01T05:52:43;109.67;;;58.07;;
18280;SDS011;9266;51.132;17.062;2023-03-01T05:55:11;113.60;;;60.73;;
18280;SDS011;9266;51.132;17.062;2023-03-01T05:57:38;123.97;;;67.23;;
18280;SDS011;9266;51.132;17.062;2023-03-01T06:00:06;124.90;;;66.20;;
18280;SDS011;9266;51.132;17.062;2023-03-01T06:02:34;129.27;;;67.93;;
18280;SDS011;9266;51.132;17.062;2023-03-01T06:05:03;124.23;;;68.57;;
18280;SDS011;9266;51.132;17.062;2023-03-01T06:07:32;130.73;;;70.83;;
18280;SDS011;9266;51.132;17.062;2023-03-01T06:09:59;135.87;;;70.33;;
18280;SDS011;9266;51.132;17.062;2023-03-01T06:12:27;130.53;;;69.03;;
18280;SDS011;9266;51.132;17.062;2023-03-01T06:14:57;124.43;;;67.50;;
18280;SDS011;9266;51.132;17.062;2023-03-01T06:17:25;114.20;;;64.80;;
18280;SDS011;9266;51.132;17.062;2023-03-01T06:19:52;118.23;;;65.77;;
18280;SDS011;9266;51.132;17.062;2023-03-01T06:22:19;118.83;;;64.43;;
18280;SDS011;9266;51.132;17.062;2023-03-01T06:24:48;121.93;;;66.47;;
18280;SDS011;9266;51.132;17.062;2023-03-01T06:27:15;119.97;;;63.37;;
18280;SDS011;9266;51.132;17.062;2023-03-01T06:29:42;96.77;;;56.47;;
18280;SDS011;9266;51.132;17.062;2023-03-01T06:32:10;100.80;;;58.37;;
18280;SDS011;9266;51.132;17.062;2023-03-01T06:34:37;83.60;;;50.97;;
18280;SDS011;9266;51.132;17.062;2023-03-01T06:37:04;89.80;;;54.37;;
18280;SDS011;9266;51.132;17.062;2023-03-01T06:39:32;83.43;;;51.13;;
18280;SDS011;9266;51.132;17.062;2023-03-01T06:42:01;80.80;;;48.60;;
18280;SDS011;9266;51.132;17.062;2023-03-01T06:44:28;73.77;;;45.43;;
18280;SDS011;9266;51.132;17.062;2023-03-01T06:46:56;74.93;;;44.43;;
18280;SDS011;9266;51.132;17.062;2023-03-01T06:49:23;71.77;;;44.63;;
18280;SDS011;9266;51.132;17.062;2023-03-01T06:51:50;64.97;;;41.07;;
18280;SDS011;9266;51.132;17.062;2023-03-01T06:54:17;63.03;;;40.87;;
18280;SDS011;9266;51.132;17.062;2023-03-01T06:56:47;56.97;;;38.67;;
18280;SDS011;9266;51.132;17.062;2023-03-01T06:59:16;62.17;;;39.93;;
18280;SDS011;9266;51.132;17.062;2023-03-01T07:01:43;53.10;;;37.40;;
18280;SDS011;9266;51.132;17.062;2023-03-01T07:04:10;59.10;;;38.30;;
18280;SDS011;9266;51.132;17.062;2023-03-01T07:06:38;57.83;;;37.87;;
18280;SDS011;9266;51.132;17.062;2023-03-01T07:09:05;57.73;;;38.07;;
18280;SDS011;9266;51.132;17.062;2023-03-01T07:11:32;56.17;;;38.00;;
18280;SDS011;9266;51.132;17.062;2023-03-01T07:14:00;60.27;;;38.90;;
18280;SDS011;9266;51.132;17.062;2023-03-01T07:16:28;54.97;;;37.33;;
18280;SDS011;9266;51.132;17.062;2023-03-01T07:18:55;57.63;;;38.60;;
18280;SDS011;9266;51.132;17.062;2023-03-01T07:21:22;61.73;;;40.27;;
18280;SDS011;9266;51.132;17.062;2023-03-01T07:23:49;59.63;;;39.43;;
18280;SDS011;9266;51.132;17.062;2023-03-01T07:26:16;56.30;;;38.77;;
18280;SDS011;9266;51.132;17.062;2023-03-01T07:28:43;63.67;;;42.50;;
18280;SDS011;9266;51.132;17.062;2023-03-01T07:31:10;61.53;;;41.30;;
18280;SDS011;9266;51.132;17.062;2023-03-01T07:33:39;61.50;;;40.27;;
18280;SDS011;9266;51.132;17.062;2023-03-01T07:36:06;62.30;;;41.30;;
18280;SDS011;9266;51.132;17.062;2023-03-01T07:38:34;62.03;;;40.83;;
18280;SDS011;9266;51.132;17.062;2023-03-01T07:41:01;59.40;;;39.97;;
18280;SDS011;9266;51.132;17.062;2023-03-01T07:43:30;60.47;;;42.47;;
18280;SDS011;9266;51.132;17.062;2023-03-01T07:45:58;56.60;;;38.60;;
18280;SDS011;9266;51.132;17.062;2023-03-01T07:48:26;59.23;;;39.43;;
18280;SDS011;9266;51.132;17.062;2023-03-01T07:50:55;58.97;;;37.97;;
18280;SDS011;9266;51.132;17.062;2023-03-01T07:53:24;57.50;;;38.23;;
18280;SDS011;9266;51.132;17.062;2023-03-01T07:55:59;54.77;;;36.50;;
18280;SDS011;9266;51.132;17.062;2023-03-01T07:58:27;55.07;;;34.27;;
18280;SDS011;9266;51.132;17.062;2023-03-01T08:00:54;47.40;;;32.87;;
18280;SDS011;9266;51.132;17.062;2023-03-01T08:03:21;44.83;;;31.47;;
18280;SDS011;9266;51.132;17.062;2023-03-01T08:05:48;45.73;;;30.30;;
18280;SDS011;9266;51.132;17.062;2023-03-01T08:08:17;40.17;;;27.97;;
18280;SDS011;9266;51.132;17.062;2023-03-01T08:10:44;42.93;;;29.73;;
18280;SDS011;9266;51.132;17.062;2023-03-01T08:13:11;37.17;;;26.33;;
18280;SDS011;9266;51.132;17.062;2023-03-01T08:15:38;43.30;;;26.57;;
18280;SDS011;9266;51.132;17.062;2023-03-01T08:18:05;40.03;;;26.23;;
18280;SDS011;9266;51.132;17.062;2023-03-01T08:20:32;40.73;;;25.83;;
18280;SDS011;9266;51.132;17.062;2023-03-01T08:22:59;38.93;;;24.77;;
18280;SDS011;9266;51.132;17.062;2023-03-01T08:25:27;41.27;;;25.57;;
18280;SDS011;9266;51.132;17.062;2023-03-01T08:27:54;29.13;;;21.07;;
18280;SDS011;9266;51.132;17.062;2023-03-01T08:30:21;29.40;;;20.97;;
18280;SDS011;9266;51.132;17.062;2023-03-01T08:32:49;29.67;;;21.77;;
18280;SDS011;9266;51.132;17.062;2023-03-01T08:35:17;33.23;;;21.77;;
18280;SDS011;9266;51.132;17.062;2023-03-01T08:37:45;29.30;;;20.37;;
18280;SDS011;9266;51.132;17.062;2023-03-01T08:40:12;32.10;;;23.10;;
18280;SDS011;9266;51.132;17.062;2023-03-01T08:42:41;37.97;;;25.37;;
18280;SDS011;9266;51.132;17.062;2023-03-01T08:45:09;35.63;;;23.20;;
18280;SDS011;9266;51.132;17.062;2023-03-01T08:47:37;37.90;;;24.67;;
18280;SDS011;9266;51.132;17.062;2023-03-01T08:50:05;42.50;;;25.43;;
18280;SDS011;9266;51.132;17.062;2023-03-01T08:52:32;34.87;;;25.63;;
18280;SDS011;9266;51.132;17.062;2023-03-01T08:54:59;38.50;;;26.00;;
18280;SDS011;9266;51.132;17.062;2023-03-01T08:57:27;42.87;;;27.33;;
18280;SDS011;9266;51.132;17.062;2023-03-01T08:59:56;45.47;;;28.60;;
18280;SDS011;9266;51.132;17.062;2023-03-01T09:02:23;37.67;;;26.37;;
18280;SDS011;9266;51.132;17.062;2023-03-01T09:04:50;40.03;;;25.70;;
18280;SDS011;9266;51.132;17.062;2023-03-01T09:07:17;42.70;;;26.53;;
18280;SDS011;9266;51.132;17.062;2023-03-01T09:09:44;39.53;;;25.83;;
18280;SDS011;9266;51.132;17.062;2023-03-01T09:12:11;41.67;;;26.90;;
18280;SDS011;9266;51.132;17.062;2023-03-01T09:14:38;37.57;;;26.47;;
18280;SDS011;9266;51.132;17.062;2023-03-01T09:17:07;40.10;;;26.07;;
18280;SDS011;9266;51.132;17.062;2023-03-01T09:19:34;36.33;;;24.47;;
18280;SDS011;9266;51.132;17.062;2023-03-01T09:22:02;36.50;;;24.20;;
18280;SDS011;9266;51.132;17.062;2023-03-01T09:24:29;35.63;;;25.30;;
18280;SDS011;9266;51.132;17.062;2023-03-01T09:26:57;43.10;;;28.03;;
18280;SDS011;9266;51.132;17.062;2023-03-01T09:29:25;41.00;;;27.30;;
18280;SDS011;9266;51.132;17.062;2023-03-01T09:31:52;38.57;;;25.43;;
18280;SDS011;9266;51.132;17.062;2023-03-01T09:34:22;35.00;;;24.13;;
18280;SDS011;9266;51.132;17.062;2023-03-01T09:36:49;38.17;;;24.67;;
18280;SDS011;9266;51.132;17.062;2023-03-01T09:39:17;36.57;;;24.00;;
18280;SDS011;9266;51.132;17.062;2023-03-01T09:41:46;39.37;;;25.57;;
18280;SDS011;9266;51.132;17.062;2023-03-01T09:44:28;35.00;;;24.60;;
18280;SDS011;9266;51.132;17.062;2023-03-01T09:47:01;32.67;;;23.47;;
18280;SDS011;9266;51.132;17.062;2023-03-01T09:49:31;33.67;;;22.87;;
18280;SDS011;9266;51.132;17.062;2023-03-01T09:52:03;33.20;;;23.33;;
18280;SDS011;9266;51.132;17.062;2023-03-01T09:54:38;34.17;;;22.50;;
18280;SDS011;9266;51.132;17.062;2023-03-01T09:57:06;37.77;;;22.10;;
18280;SDS011;9266;51.132;17.062;2023-03-01T09:59:49;29.67;;;20.07;;
18280;SDS011;9266;51.132;17.062;2023-03-01T10:02:30;30.23;;;22.40;;
18280;SDS011;9266;51.132;17.062;2023-03-01T10:05:09;34.00;;;21.53;;
18280;SDS011;9266;51.132;17.062;2023-03-01T10:07:46;29.10;;;21.03;;
18280;SDS011;9266;51.132;17.062;2023-03-01T10:10:23;34.13;;;23.00;;
18280;SDS011;9266;51.132;17.062;2023-03-01T10:12:54;32.40;;;20.03;;
18280;SDS011;9266;51.132;17.062;2023-03-01T10:15:25;29.30;;;20.67;;
18280;SDS011;9266;51.132;17.062;2023-03-01T10:18:01;29.43;;;20.03;;
18280;SDS011;9266;51.132;17.062;2023-03-01T10:20:36;27.17;;;18.97;;
18280;SDS011;9266;51.132;17.062;2023-03-01T10:23:12;27.80;;;19.80;;
18280;SDS011;9266;51.132;17.062;2023-03-01T10:25:43;26.57;;;19.50;;
18280;SDS011;9266;51.132;17.062;2023-03-01T10:28:20;28.77;;;19.73;;
18280;SDS011;9266;51.132;17.062;2023-03-01T10:30:56;32.47;;;20.97;;
18280;SDS011;9266;51.132;17.062;2023-03-01T10:33:25;33.60;;;23.60;;
18280;SDS011;9266;51.132;17.062;2023-03-01T10:35:57;31.97;;;21.30;;
18280;SDS011;9266;51.132;17.062;2023-03-01T10:38:24;34.37;;;22.30;;
18280;SDS011;9266;51.132;17.062;2023-03-01T10:40:53;32.47;;;21.17;;
18280;SDS011;9266;51.132;17.062;2023-03-01T10:43:22;34.53;;;21.70;;
18280;SDS011;9266;51.132;17.062;2023-03-01T10:45:49;32.63;;;21.53;;
18280;SDS011;9266;51.132;17.062;2023-03-01T10:48:18;27.30;;;19.47;;
18280;SDS011;9266;51.132;17.062;2023-03-01T10:50:49;26.53;;;17.57;;
18280;SDS011;9266;51.132;17.062;2023-03-01T10:53:32;27.23;;;20.77;;
18280;SDS011;9266;51.132;17.062;2023-03-01T10:56:01;28.97;;;19.73;;
18280;SDS011;9266;51.132;17.062;2023-03-01T10:58:31;27.00;;;18.53;;
18280;SDS011;9266;51.132;17.062;2023-03-01T11:01:00;32.30;;;20.07;;
18280;SDS011;9266;51.132;17.062;2023-03-01T11:03:29;25.83;;;18.17;;
18280;SDS011;9266;51.132;17.062;2023-03-01T11:06:03;28.53;;;19.00;;
18280;SDS011;9266;51.132;17.062;2023-03-01T11:08:41;39.40;;;23.87;;
18280;SDS011;9266;51.132;17.062;2023-03-01T11:11:14;30.53;;;20.30;;
18280;SDS011;9266;51.132;17.062;2023-03-01T11:13:53;46.93;;;31.93;;
18280;SDS011;9266;51.132;17.062;2023-03-01T11:16:23;27.60;;;19.53;;
18280;SDS011;9266;51.132;17.062;2023-03-01T11:18:56;27.70;;;18.33;;
18280;SDS011;9266;51.132;17.062;2023-03-01T11:21:24;31.60;;;21.87;;
18280;SDS011;9266;51.132;17.062;2023-03-01T11:23:55;32.17;;;21.33;;
18280;SDS011;9266;51.132;17.062;2023-03-01T11:26:26;27.93;;;19.63;;
18280;SDS011;9266;51.132;17.062;2023-03-01T11:28:56;27.60;;;18.00;;
18280;SDS011;9266;51.132;17.062;2023-03-01T11:31:28;25.60;;;17.47;;
18280;SDS011;9266;51.132;17.062;2023-03-01T11:33:57;26.87;;;17.97;;
18280;SDS011;9266;51.132;17.062;2023-03-01T11:36:32;23.87;;;17.20;;
18280;SDS011;9266;51.132;17.062;2023-03-01T11:41:58;29.60;;;19.97;;
18280;SDS011;9266;51.132;17.062;2023-03-01T11:44:30;26.20;;;19.43;;
18280;SDS011;9266;51.132;17.062;2023-03-01T11:47:06;27.43;;;19.53;;
18280;SDS011;9266;51.132;17.062;2023-03-01T11:49:45;28.13;;;18.87;;
18280;SDS011;9266;51.132;17.062;2023-03-01T11:52:33;30.03;;;18.97;;
18280;SDS011;9266;51.132;17.062;2023-03-01T11:55:14;26.40;;;19.93;;
18280;SDS011;9266;51.132;17.062;2023-03-01T11:58:01;28.33;;;18.70;;
18280;SDS011;9266;51.132;17.062;2023-03-01T12:00:44;26.00;;;19.27;;
18280;SDS011;9266;51.132;17.062;2023-03-01T12:03:44;27.47;;;19.03;;
18280;SDS011;9266;51.132;17.062;2023-03-01T12:06:42;31.83;;;20.23;;
18280;SDS011;9266;51.132;17.062;2023-03-01T12:09:22;25.50;;;18.00;;
18280;SDS011;9266;51.132;17.062;2023-03-01T12:12:09;23.03;;;17.00;;
18280;SDS011;9266;51.132;17.062;2023-03-01T12:15:02;25.33;;;17.40;;
18280;SDS011;9266;51.132;17.062;2023-03-01T12:17:46;23.37;;;16.17;;
18280;SDS011;9266;51.132;17.062;2023-03-01T12:20:26;21.83;;;15.97;;
18280;SDS011;9266;51.132;17.062;2023-03-01T12:23:02;19.30;;;13.00;;
18280;SDS011;9266;51.132;17.062;2023-03-01T12:25:48;21.57;;;13.60;;
18280;SDS011;9266;51.132;17.062;2023-03-01T12:28:24;16.90;;;12.57;;
18280;SDS011;9266;51.132;17.062;2023-03-01T12:31:10;18.83;;;12.57;;
18280;SDS011;9266;51.132;17.062;2023-03-01T12:33:57;20.50;;;14.10;;
18280;SDS011;9266;51.132;17.062;2023-03-01T12:36:40;19.23;;;13.73;;
18280;SDS011;9266;51.132;17.062;2023-03-01T12:39:21;18.70;;;12.33;;
18280;SDS011;9266;51.132;17.062;2023-03-01T12:42:01;15.73;;;10.90;;
18280;SDS011;9266;51.132;17.062;2023-03-01T12:44:42;21.63;;;12.00;;
18280;SDS011;9266;51.132;17.062;2023-03-01T12:47:30;13.87;;;10.20;;
18280;SDS011;9266;51.132;17.062;2023-03-01T12:50:11;13.40;;;9.47;;
18280;SDS011;9266;51.132;17.062;2023-03-01T12:52:40;16.57;;;11.90;;
18280;SDS011;9266;51.132;17.062;2023-03-01T12:55:18;14.00;;;10.77;;
18280;SDS011;9266;51.132;17.062;2023-03-01T12:57:56;14.73;;;10.60;;
18280;SDS011;9266;51.132;17.062;2023-03-01T13:00:32;16.57;;;10.97;;
18280;SDS011;9266;51.132;17.062;2023-03-01T13:03:09;13.40;;;9.80;;
18280;SDS011;9266;51.132;17.062;2023-03-01T13:05:46;14.83;;;10.00;;
18280;SDS011;9266;51.132;17.062;2023-03-01T13:08:26;12.23;;;9.93;;
18280;SDS011;9266;51.132;17.062;2023-03-01T13:10:58;14.40;;;10.90;;
18280;SDS011;9266;51.132;17.062;2023-03-01T13:13:28;15.97;;;11.63;;
18280;SDS011;9266;51.132;17.062;2023-03-01T13:15:58;15.37;;;11.57;;
18280;SDS011;9266;51.132;17.062;2023-03-01T13:19:06;17.50;;;12.23;;
18280;SDS011;9266;51.132;17.062;2023-03-01T13:21:42;15.90;;;11.53;;
18280;SDS011;9266;51.132;17.062;2023-03-01T13:24:26;16.03;;;12.07;;
18280;SDS011;9266;51.132;17.062;2023-03-01T13:27:09;17.00;;;12.23;;
18280;SDS011;9266;51.132;17.062;2023-03-01T13:29:54;19.50;;;12.50;;
18280;SDS011;9266;51.132;17.062;2023-03-01T13:32:27;19.47;;;13.50;;
18280;SDS011;9266;51.132;17.062;2023-03-01T13:35:00;18.23;;;14.33;;
18280;SDS011;9266;51.132;17.062;2023-03-01T13:37:33;17.63;;;12.70;;
18280;SDS011;9266;51.132;17.062;2023-03-01T13:43:27;16.90;;;11.63;;
18280;SDS011;9266;51.132;17.062;2023-03-01T13:45:57;17.67;;;12.93;;
18280;SDS011;9266;51.132;17.062;2023-03-01T13:48:27;16.87;;;11.83;;
18280;SDS011;9266;51.132;17.062;2023-03-01T13:50:58;20.57;;;13.70;;
18280;SDS011;9266;51.132;17.062;2023-03-01T13:53:29;18.50;;;14.03;;
18280;SDS011;9266;51.132;17.062;2023-03-01T13:55:58;17.53;;;12.80;;
18280;SDS011;9266;51.132;17.062;2023-03-01T13:58:29;20.00;;;14.00;;
18280;SDS011;9266;51.132;17.062;2023-03-01T14:00:58;18.67;;;13.33;;
18280;SDS011;9266;51.132;17.062;2023-03-01T14:03:28;19.10;;;14.00;;
18280;SDS011;9266;51.132;17.062;2023-03-01T14:05:58;20.57;;;15.10;;
18280;SDS011;9266;51.132;17.062;2023-03-01T14:08:35;18.47;;;13.50;;
18280;SDS011;9266;51.132;17.062;2023-03-01T14:14:12;18.43;;;14.20;;
18280;SDS011;9266;51.132;17.062;2023-03-01T14:16:54;20.73;;;14.60;;
18280;SDS011;9266;51.132;17.062;2023-03-01T14:19:34;19.93;;;13.40;;
18280;SDS011;9266;51.132;17.062;2023-03-01T14:22:03;20.03;;;14.03;;
18280;SDS011;9266;51.132;17.062;2023-03-01T14:24:43;19.27;;;14.10;;
18280;SDS011;9266;51.132;17.062;2023-03-01T14:27:14;18.93;;;14.40;;
18280;SDS011;9266;51.132;17.062;2023-03-01T14:29:42;20.47;;;14.27;;
18280;SDS011;9266;51.132;17.062;2023-03-01T14:32:17;18.17;;;13.33;;
18280;SDS011;9266;51.132;17.062;2023-03-01T14:34:48;18.03;;;13.90;;
18280;SDS011;9266;51.132;17.062;2023-03-01T14:37:18;23.57;;;13.90;;
18280;SDS011;9266;51.132;17.062;2023-03-01T14:39:49;18.63;;;14.00;;
18280;SDS011;9266;51.132;17.062;2023-03-01T14:42:17;19.10;;;14.23;;
18280;SDS011;9266;51.132;17.062;2023-03-01T14:44:46;20.60;;;14.07;;
18280;SDS011;9266;51.132;17.062;2023-03-01T14:47:15;20.13;;;13.80;;